Wetterdaten: Woche 02.06.14 - 08.06.14 (KW23)
Datum Zeit Temp. A. Feuchte A. Luftdruck Regen Wind Richtung Taupunkt Windchill Windben
02.06.2014 00:00 15,2 C 65 % 1016,6 hPa 0,0 l/m 2,8 km/h N 8,6 C 15,2 C 9,7 km/h
02.06.2014 01:00 15,0 C 66 % 1016,9 hPa 0,0 l/m 2,7 km/h N 8,6 C 15,0 C 10,9 km/h
02.06.2014 02:00 14,5 C 68 % 1016,7 hPa 0,0 l/m 2,0 km/h N 8,6 C 14,5 C 8,0 km/h
02.06.2014 03:00 13,9 C 69 % 1016,5 hPa 0,0 l/m 2,5 km/h N 8,3 C 13,9 C 9,3 km/h
02.06.2014 04:00 13,7 C 70 % 1016,4 hPa 0,0 l/m 2,9 km/h N 8,3 C 13,7 C 11,3 km/h
02.06.2014 05:00 13,6 C 69 % 1016,6 hPa 0,0 l/m 3,8 km/h N 8,1 C 13,6 C 11,7 km/h
02.06.2014 06:00 13,6 C 71 % 1016,8 hPa 0,0 l/m 3,0 km/h N 8,5 C 13,6 C 10,9 km/h
02.06.2014 07:00 14,7 C 69 % 1017,1 hPa 0,0 l/m 6,3 km/h N 9,1 C 14,7 C 19,3 km/h
02.06.2014 08:00 15,9 C 66 % 1017,1 hPa 0,0 l/m 5,8 km/h N 9,5 C 15,8 C 17,7 km/h
02.06.2014 09:00 16,3 C 64 % 1016,9 hPa 0,0 l/m 5,3 km/h N 9,5 C 16,3 C 17,7 km/h
02.06.2014 10:00 17,7 C 62 % 1016,6 hPa 0,0 l/m 5,0 km/h N 10,3 C 17,7 C 16,1 km/h
02.06.2014 11:00 18,7 C 56 % 1016,2 hPa 0,0 l/m 7,3 km/h N 9,8 C 18,2 C 21,7 km/h
02.06.2014 12:00 19,3 C 51 % 1015,8 hPa 0,0 l/m 7,6 km/h N 8,9 C 18,8 C 22,9 km/h
02.06.2014 13:00 19,8 C 48 % 1015,2 hPa 0,0 l/m 7,5 km/h N 8,5 C 19,3 C 24,5 km/h
02.06.2014 14:00 19,8 C 45 % 1014,8 hPa 0,0 l/m 7,4 km/h N 7,5 C 19,4 C 23,7 km/h
02.06.2014 15:00 19,8 C 45 % 1014,6 hPa 0,0 l/m 5,2 km/h N 7,6 C 19,8 C 13,7 km/h
02.06.2014 16:00 19,7 C 45 % 1014,4 hPa 0,0 l/m 5,0 km/h N 7,4 C 19,7 C 16,1 km/h
02.06.2014 17:00 19,9 C 44 % 1014,3 hPa 0,0 l/m 4,2 km/h N 7,1 C 19,9 C 16,5 km/h
02.06.2014 18:00 18,9 C 43 % 1014,5 hPa 0,0 l/m 3,5 km/h N 5,9 C 18,9 C 11,7 km/h
02.06.2014 19:00 18,2 C 45 % 1014,4 hPa 0,0 l/m 1,3 km/h N 6,2 C 18,2 C 7,6 km/h
02.06.2014 20:00 17,4 C 51 % 1014,6 hPa 0,0 l/m 0,2 km/h N 7,3 C 17,4 C 2,4 km/h
02.06.2014 21:00 15,6 C 59 % 1015,0 hPa 0,0 l/m 0,1 km/h N 7,5 C 15,6 C 1,6 km/h
02.06.2014 22:00 14,5 C 63 % 1015,4 hPa 0,0 l/m 0,1 km/h N 7,5 C 14,5 C 1,6 km/h
02.06.2014 23:00 13,3 C 67 % 1015,4 hPa 0,0 l/m 0,0 km/h N 7,4 C 13,3 C 0,4 km/h
03.06.2014 00:00 12,1 C 73 % 1015,4 hPa 0,0 l/m 0,1 km/h N 7,4 C 12,1 C 0,8 km/h
03.06.2014 01:00 11,3 C 77 % 1015,3 hPa 0,0 l/m 0,0 km/h N 7,4 C 11,3 C 0,4 km/h
03.06.2014 02:00 10,8 C 79 % 1015,2 hPa 0,0 l/m 0,2 km/h N 7,3 C 10,8 C 2,0 km/h
03.06.2014 03:00 10,9 C 80 % 1014,9 hPa 0,0 l/m 0,3 km/h N 7,5 C 10,9 C 2,0 km/h
03.06.2014 04:00 10,5 C 80 % 1014,8 hPa 0,0 l/m 0,0 km/h N 7,3 C 10,5 C 0,0 km/h
03.06.2014 05:00 10,4 C 81 % 1014,8 hPa 0,0 l/m 0,0 km/h N 7,3 C 10,4 C 0,4 km/h
03.06.2014 06:00 11,3 C 81 % 1014,8 hPa 0,0 l/m 0,0 km/h N 8,1 C 11,3 C 0,0 km/h
03.06.2014 07:00 13,0 C 78 % 1015,1 hPa 0,0 l/m 0,1 km/h N 9,3 C 13,0 C 1,2 km/h
03.06.2014 08:00 15,6 C 72 % 1015,0 hPa 0,0 l/m 1,3 km/h N 10,5 C 15,6 C 6,0 km/h
03.06.2014 09:00 17,4 C 62 % 1015,0 hPa 0,0 l/m 3,0 km/h N 10,1 C 17,4 C 10,1 km/h
03.06.2014 10:00 18,2 C 57 % 1014,8 hPa 0,0 l/m 4,7 km/h N 9,6 C 18,2 C 14,9 km/h
03.06.2014 11:00 18,4 C 57 % 1014,7 hPa 0,0 l/m 2,1 km/h N 9,8 C 18,4 C 10,1 km/h
03.06.2014 12:00 19,8 C 54 % 1014,3 hPa 0,0 l/m 1,4 km/h N 10,2 C 19,8 C 7,7 km/h
03.06.2014 13:00 20,8 C 53 % 1013,9 hPa 0,0 l/m 1,3 km/h N 10,7 C 20,8 C 7,6 km/h
03.06.2014 14:00 19,9 C 55 % 1013,7 hPa 0,0 l/m 1,0 km/h N 10,5 C 19,9 C 6,4 km/h
03.06.2014 15:00 19,5 C 58 % 1013,6 hPa 0,0 l/m 2,9 km/h N 10,9 C 19,5 C 11,6 km/h
03.06.2014 16:00 18,3 C 63 % 1013,7 hPa 0,0 l/m 5,2 km/h N 11,0 C 18,3 C 16,9 km/h
03.06.2014 17:00 18,1 C 62 % 1013,5 hPa 0,0 l/m 3,6 km/h N 10,8 C 18,1 C 12,1 km/h
03.06.2014 18:00 18,3 C 62 % 1013,5 hPa 0,0 l/m 2,2 km/h N 10,9 C 18,3 C 9,7 km/h
03.06.2014 19:00 18,5 C 63 % 1013,4 hPa 0,0 l/m 0,8 km/h N 11,4 C 18,5 C 5,6 km/h
03.06.2014 20:00 18,1 C 62 % 1013,3 hPa 0,0 l/m 0,0 km/h N 10,6 C 18,1 C 0,8 km/h
03.06.2014 21:00 15,6 C 74 % 1013,8 hPa 0,0 l/m 0,1 km/h N 10,9 C 15,6 C 2,0 km/h
03.06.2014 22:00 13,9 C 79 % 1014,2 hPa 0,0 l/m 0,0 km/h N 10,2 C 13,9 C 0,0 km/h
03.06.2014 23:00 12,8 C 81 % 1014,0 hPa 0,0 l/m 0,0 km/h N 9,6 C 12,8 C 0,0 km/h
04.06.2014 00:00 11,7 C 83 % 1013,6 hPa 0,0 l/m 0,0 km/h N 8,8 C 11,7 C 0,0 km/h
04.06.2014 01:00 11,1 C 84 % 1013,3 hPa 0,0 l/m 0,0 km/h N 8,5 C 11,1 C 0,4 km/h
04.06.2014 02:00 10,7 C 84 % 1013,0 hPa 0,0 l/m 0,3 km/h N 8,1 C 10,7 C 2,4 km/h
04.06.2014 03:00 10,4 C 83 % 1012,6 hPa 0,0 l/m 0,0 km/h N 7,6 C 10,4 C 1,2 km/h
04.06.2014 04:00 9,9 C 83 % 1012,5 hPa 0,0 l/m 0,0 km/h N 7,1 C 9,9 C 0,8 km/h
04.06.2014 05:00 9,4 C 83 % 1012,5 hPa 0,0 l/m 0,2 km/h N 6,6 C 9,4 C 1,6 km/h
04.06.2014 06:00 9,4 C 83 % 1012,5 hPa 0,0 l/m 0,0 km/h N 6,5 C 9,4 C 0,4 km/h
04.06.2014 07:00 11,5 C 79 % 1012,2 hPa 0,0 l/m 0,1 km/h N 8,0 C 11,5 C 2,4 km/h
04.06.2014 08:00 15,6 C 81 % 1011,8 hPa 0,0 l/m 0,6 km/h N 12,2 C 15,6 C 4,8 km/h
04.06.2014 09:00 18,2 C 72 % 1011,6 hPa 0,0 l/m 1,3 km/h N 13,0 C 18,2 C 7,2 km/h
04.06.2014 10:00 19,5 C 67 % 1011,3 hPa 0,0 l/m 1,6 km/h N 13,2 C 19,5 C 8,0 km/h
04.06.2014 11:00 21,1 C 61 % 1011,0 hPa 0,0 l/m 1,6 km/h N 13,2 C 21,1 C 7,2 km/h
04.06.2014 12:00 22,1 C 53 % 1010,6 hPa 0,0 l/m 2,1 km/h N 12,1 C 22,1 C 10,5 km/h
04.06.2014 13:00 22,8 C 48 % 1010,2 hPa 0,0 l/m 2,4 km/h N 11,3 C 22,8 C 11,3 km/h
04.06.2014 14:00 23,3 C 48 % 1009,8 hPa 0,0 l/m 2,7 km/h N 11,6 C 23,3 C 12,1 km/h
04.06.2014 15:00 20,9 C 52 % 1010,0 hPa 0,0 l/m 6,2 km/h N 10,6 C 20,7 C 17,7 km/h
04.06.2014 16:00 20,8 C 52 % 1009,6 hPa 0,0 l/m 6,5 km/h N 10,4 C 20,7 C 18,9 km/h
04.06.2014 17:00 22,0 C 49 % 1008,7 hPa 0,0 l/m 5,5 km/h N 10,7 C 22,0 C 18,5 km/h
04.06.2014 18:00 22,1 C 50 % 1008,2 hPa 0,0 l/m 4,9 km/h N 11,2 C 22,1 C 15,3 km/h
04.06.2014 19:00 21,8 C 52 % 1008,0 hPa 0,0 l/m 3,3 km/h N 11,5 C 21,8 C 10,5 km/h
04.06.2014 20:00 20,6 C 57 % 1008,0 hPa 0,0 l/m 1,0 km/h N 11,6 C 20,6 C 6,0 km/h
04.06.2014 21:00 18,0 C 65 % 1008,3 hPa 0,0 l/m 0,1 km/h N 11,4 C 18,0 C 1,2 km/h
04.06.2014 22:00 15,5 C 74 % 1008,6 hPa 0,0 l/m 0,0 km/h N 11,0 C 15,5 C 0,0 km/h
04.06.2014 23:00 15,1 C 76 % 1008,6 hPa 0,0 l/m 0,1 km/h N 10,8 C 15,1 C 2,4 km/h
05.06.2014 00:00 15,5 C 75 % 1008,6 hPa 0,0 l/m 0,6 km/h N 11,0 C 15,5 C 4,8 km/h
05.06.2014 01:00 15,1 C 77 % 1008,8 hPa 0,0 l/m 0,2 km/h N 11,1 C 15,1 C 2,0 km/h
05.06.2014 02:00 14,3 C 79 % 1009,2 hPa 0,0 l/m 0,1 km/h N 10,8 C 14,3 C 1,6 km/h
05.06.2014 03:00 13,8 C 82 % 1009,9 hPa 0,0 l/m 0,3 km/h N 10,8 C 13,8 C 2,0 km/h
05.06.2014 04:00 15,0 C 80 % 1010,3 hPa 0,0 l/m 1,6 km/h N 11,6 C 15,0 C 8,4 km/h
05.06.2014 05:00 16,7 C 74 % 1010,8 hPa 0,0 l/m 1,1 km/h N 12,1 C 16,7 C 6,8 km/h
05.06.2014 06:00 16,7 C 75 % 1011,5 hPa 0,0 l/m 2,3 km/h N 12,2 C 16,7 C 12,1 km/h
05.06.2014 07:00 16,5 C 75 % 1012,3 hPa 0,0 l/m 3,6 km/h N 12,0 C 16,5 C 14,1 km/h
05.06.2014 08:00 16,3 C 74 % 1013,3 hPa 0,0 l/m 6,4 km/h N 11,6 C 16,2 C 18,9 km/h
05.06.2014 09:00 16,5 C 73 % 1014,0 hPa 0,0 l/m 6,6 km/h N 11,6 C 16,1 C 18,5 km/h
05.06.2014 10:00 16,9 C 74 % 1014,4 hPa 0,0 l/m 5,4 km/h N 12,1 C 16,8 C 18,1 km/h
05.06.2014 11:00 17,2 C 73 % 1015,0 hPa 0,0 l/m 8,1 km/h N 12,3 C 16,4 C 23,3 km/h
05.06.2014 12:00 18,0 C 68 % 1015,2 hPa 0,0 l/m 6,3 km/h N 11,9 C 17,7 C 20,9 km/h
05.06.2014 13:00 18,6 C 64 % 1015,2 hPa 0,0 l/m 7,7 km/h N 11,7 C 17,9 C 20,9 km/h
05.06.2014 14:00 19,4 C 62 % 1015,3 hPa 0,0 l/m 7,8 km/h N 11,8 C 18,8 C 24,1 km/h
05.06.2014 15:00 19,6 C 61 % 1015,3 hPa 0,0 l/m 4,5 km/h N 12,0 C 19,6 C 14,5 km/h
05.06.2014 16:00 19,3 C 58 % 1015,5 hPa 0,0 l/m 4,2 km/h N 10,8 C 19,3 C 15,7 km/h
05.06.2014 17:00 18,9 C 60 % 1015,5 hPa 0,0 l/m 2,3 km/h N 10,9 C 18,9 C 10,0 km/h
05.06.2014 18:00 19,0 C 61 % 1015,5 hPa 0,0 l/m 2,1 km/h N 11,2 C 19,0 C 8,9 km/h
05.06.2014 19:00 18,8 C 64 % 1015,6 hPa 0,0 l/m 1,5 km/h N 11,7 C 18,8 C 7,2 km/h
05.06.2014 20:00 18,0 C 66 % 1015,8 hPa 0,0 l/m 0,6 km/h N 11,6 C 18,0 C 4,0 km/h
05.06.2014 21:00 16,7 C 70 % 1016,2 hPa 0,0 l/m 1,2 km/h N 11,1 C 16,7 C 5,6 km/h
05.06.2014 22:00 14,7 C 75 % 1016,7 hPa 0,0 l/m 0,1 km/h N 10,2 C 14,7 C 0,8 km/h
05.06.2014 23:00 13,1 C 79 % 1017,2 hPa 0,0 l/m 0,0 km/h N 9,5 C 13,1 C 1,2 km/h
06.06.2014 00:00 12,4 C 81 % 1017,5 hPa 0,0 l/m 0,1 km/h N 9,3 C 12,4 C 2,0 km/h
06.06.2014 01:00 12,3 C 82 % 1017,5 hPa 0,0 l/m 0,2 km/h N 9,4 C 12,3 C 2,8 km/h
06.06.2014 02:00 12,3 C 81 % 1017,6 hPa 0,0 l/m 0,2 km/h N 9,1 C 12,3 C 4,0 km/h
06.06.2014 03:00 11,9 C 81 % 1017,9 hPa 0,0 l/m 0,3 km/h N 8,7 C 11,9 C 3,6 km/h
06.06.2014 04:00 11,1 C 82 % 1018,2 hPa 0,0 l/m 0,1 km/h N 8,1 C 11,1 C 1,2 km/h
06.06.2014 05:00 10,3 C 83 % 1018,7 hPa 0,0 l/m 0,0 km/h N 7,6 C 10,3 C 0,0 km/h
06.06.2014 06:00 11,0 C 84 % 1019,1 hPa 0,0 l/m 0,1 km/h N 8,3 C 11,0 C 2,0 km/h
06.06.2014 07:00 13,8 C 83 % 1019,0 hPa 0,0 l/m 0,0 km/h N 11,0 C 13,8 C 0,8 km/h
06.06.2014 08:00 18,7 C 65 % 1019,2 hPa 0,0 l/m 2,8 km/h N 12,0 C 18,7 C 8,9 km/h
06.06.2014 09:00 20,7 C 57 % 1019,4 hPa 0,0 l/m 2,3 km/h N 11,7 C 20,7 C 10,1 km/h
06.06.2014 10:00 21,9 C 51 % 1019,2 hPa 0,0 l/m 2,1 km/h N 11,2 C 21,9 C 8,9 km/h
06.06.2014 11:00 22,9 C 48 % 1019,1 hPa 0,0 l/m 2,2 km/h N 11,2 C 22,9 C 8,9 km/h
06.06.2014 12:00 23,5 C 47 % 1018,8 hPa 0,0 l/m 2,4 km/h N 11,4 C 23,5 C 10,5 km/h
06.06.2014 13:00 25,0 C 44 % 1018,3 hPa 0,0 l/m 1,8 km/h N 11,7 C 25,0 C 8,9 km/h
06.06.2014 14:00 25,8 C 43 % 1017,8 hPa 0,0 l/m 2,1 km/h N 12,2 C 25,8 C 12,5 km/h
06.06.2014 15:00 25,4 C 44 % 1017,4 hPa 0,0 l/m 2,5 km/h N 12,2 C 25,4 C 10,5 km/h
06.06.2014 16:00 24,9 C 42 % 1017,3 hPa 0,0 l/m 2,0 km/h N 10,9 C 24,9 C 8,9 km/h
06.06.2014 17:00 25,5 C 42 % 1017,1 hPa 0,0 l/m 1,3 km/h N 11,4 C 25,5 C 8,0 km/h
06.06.2014 18:00 25,8 C 41 % 1016,8 hPa 0,0 l/m 1,6 km/h N 11,6 C 25,8 C 8,8 km/h
06.06.2014 19:00 25,2 C 43 % 1016,8 hPa 0,0 l/m 0,6 km/h N 11,5 C 25,2 C 4,8 km/h
06.06.2014 20:00 24,0 C 46 % 1016,7 hPa 0,0 l/m 0,0 km/h N 11,8 C 24,0 C 0,0 km/h
06.06.2014 21:00 19,8 C 59 % 1017,2 hPa 0,0 l/m 0,0 km/h N 11,3 C 19,8 C 0,0 km/h
06.06.2014 22:00 16,7 C 70 % 1017,8 hPa 0,0 l/m 0,0 km/h N 11,2 C 16,7 C 0,0 km/h
06.06.2014 23:00 14,9 C 76 % 1017,9 hPa 0,0 l/m 0,0 km/h N 10,6 C 14,9 C 0,0 km/h
07.06.2014 00:00 13,8 C 78 % 1017,9 hPa 0,0 l/m 0,0 km/h N 10,1 C 13,8 C 0,0 km/h
07.06.2014 01:00 12,9 C 81 % 1017,7 hPa 0,0 l/m 0,0 km/h N 9,6 C 12,9 C 0,0 km/h
07.06.2014 02:00 12,3 C 82 % 1017,5 hPa 0,0 l/m 0,0 km/h N 9,3 C 12,3 C 0,4 km/h
07.06.2014 03:00 11,8 C 82 % 1017,5 hPa 0,0 l/m 0,0 km/h N 8,8 C 11,8 C 0,0 km/h
07.06.2014 04:00 11,3 C 83 % 1017,6 hPa 0,0 l/m 0,0 km/h N 8,6 C 11,3 C 0,0 km/h
07.06.2014 05:00 11,1 C 84 % 1017,6 hPa 0,0 l/m 0,0 km/h N 8,4 C 11,1 C 0,0 km/h
07.06.2014 06:00 11,7 C 84 % 1017,8 hPa 0,0 l/m 0,0 km/h N 9,1 C 11,7 C 0,4 km/h
07.06.2014 07:00 14,5 C 80 % 1018,0 hPa 0,0 l/m 0,2 km/h N 11,1 C 14,5 C 2,0 km/h
07.06.2014 08:00 19,9 C 64 % 1018,0 hPa 0,0 l/m 0,1 km/h N 12,7 C 19,9 C 3,2 km/h
07.06.2014 09:00 22,8 C 55 % 1017,9 hPa 0,0 l/m 1,0 km/h N 13,3 C 22,8 C 6,4 km/h
07.06.2014 10:00 23,8 C 54 % 1018,0 hPa 0,0 l/m 1,0 km/h N 13,9 C 23,8 C 6,4 km/h
07.06.2014 11:00 25,0 C 52 % 1018,1 hPa 0,0 l/m 1,5 km/h N 14,3 C 25,0 C 8,0 km/h
07.06.2014 12:00 26,3 C 48 % 1018,1 hPa 0,0 l/m 1,7 km/h N 14,3 C 26,3 C 8,4 km/h
07.06.2014 13:00 27,0 C 49 % 1017,9 hPa 0,0 l/m 2,0 km/h N 15,4 C 27,0 C 8,9 km/h
07.06.2014 14:00 27,2 C 49 % 1017,6 hPa 0,0 l/m 1,6 km/h N 15,4 C 27,2 C 7,6 km/h
07.06.2014 15:00 27,6 C 49 % 1017,2 hPa 0,0 l/m 1,9 km/h N 15,8 C 27,6 C 10,0 km/h
07.06.2014 16:00 27,1 C 50 % 1017,0 hPa 0,0 l/m 1,6 km/h N 15,9 C 27,1 C 8,4 km/h
07.06.2014 17:00 27,7 C 47 % 1016,8 hPa 0,0 l/m 2,3 km/h N 15,2 C 27,7 C 12,1 km/h
07.06.2014 18:00 28,6 C 46 % 1016,7 hPa 0,0 l/m 0,7 km/h N 15,9 C 28,6 C 5,2 km/h
07.06.2014 19:00 28,2 C 47 % 1016,8 hPa 0,0 l/m 0,2 km/h N 15,6 C 28,2 C 2,8 km/h
07.06.2014 20:00 26,5 C 54 % 1016,9 hPa 0,0 l/m 0,0 km/h N 16,3 C 26,5 C 0,4 km/h
07.06.2014 21:00 22,5 C 63 % 1017,6 hPa 0,0 l/m 0,0 km/h N 15,2 C 22,5 C 0,0 km/h
07.06.2014 22:00 19,7 C 72 % 1018,0 hPa 0,0 l/m 0,0 km/h N 14,6 C 19,7 C 0,0 km/h
07.06.2014 23:00 18,4 C 76 % 1018,2 hPa 0,0 l/m 0,1 km/h N 14,1 C 18,4 C 1,2 km/h
08.06.2014 00:00 17,7 C 78 % 1018,5 hPa 0,0 l/m 0,2 km/h N 13,8 C 17,7 C 2,8 km/h
08.06.2014 01:00 17,0 C 80 % 1018,3 hPa 0,0 l/m 0,1 km/h N 13,5 C 17,0 C 2,0 km/h
08.06.2014 02:00 16,5 C 82 % 1018,3 hPa 0,0 l/m 0,4 km/h N 13,3 C 16,5 C 4,0 km/h
08.06.2014 03:00 16,0 C 82 % 1018,8 hPa 0,0 l/m 0,1 km/h N 12,9 C 16,0 C 1,6 km/h
08.06.2014 04:00 15,1 C 83 % 1018,9 hPa 0,0 l/m 0,1 km/h N 12,3 C 15,1 C 1,6 km/h
08.06.2014 05:00 14,9 C 83 % 1019,1 hPa 0,0 l/m 0,1 km/h N 12,0 C 14,9 C 2,0 km/h
08.06.2014 06:00 15,7 C 82 % 1019,6 hPa 0,0 l/m 0,1 km/h N 12,7 C 15,7 C 2,0 km/h
08.06.2014 07:00 17,8 C 82 % 1019,8 hPa 0,0 l/m 0,0 km/h N 14,5 C 17,8 C 0,0 km/h
08.06.2014 08:00 22,0 C 65 % 1020,1 hPa 0,0 l/m 0,1 km/h N 15,1 C 22,0 C 2,4 km/h
08.06.2014 09:00 25,4 C 58 % 1020,1 hPa 0,0 l/m 0,5 km/h N 16,4 C 25,4 C 4,8 km/h
08.06.2014 10:00 26,9 C 55 % 1020,0 hPa 0,0 l/m 0,9 km/h N 17,1 C 26,9 C 5,2 km/h
08.06.2014 11:00 27,6 C 51 % 1020,1 hPa 0,0 l/m 1,7 km/h N 16,3 C 27,6 C 7,2 km/h
08.06.2014 12:00 28,6 C 50 % 1020,1 hPa 0,0 l/m 2,0 km/h N 17,2 C 28,6 C 8,4 km/h
08.06.2014 13:00 29,8 C 49 % 1019,9 hPa 0,0 l/m 1,9 km/h N 17,9 C 29,8 C 9,3 km/h
08.06.2014 14:00 30,1 C 46 % 1019,6 hPa 0,0 l/m 2,0 km/h N 17,2 C 30,1 C 10,9 km/h
08.06.2014 15:00 30,4 C 40 % 1019,3 hPa 0,0 l/m 1,5 km/h N 15,2 C 30,4 C 10,1 km/h
08.06.2014 16:00 29,9 C 38 % 1019,3 hPa 0,0 l/m 1,3 km/h N 13,8 C 29,9 C 7,6 km/h
08.06.2014 17:00 30,5 C 35 % 1019,1 hPa 0,0 l/m 1,1 km/h N 13,2 C 30,5 C 6,8 km/h
08.06.2014 18:00 30,8 C 37 % 1018,8 hPa 0,0 l/m 1,2 km/h N 14,3 C 30,8 C 6,4 km/h
08.06.2014 19:00 30,1 C 39 % 1018,7 hPa 0,0 l/m 0,9 km/h N 14,4 C 30,1 C 6,0 km/h
08.06.2014 20:00 28,4 C 44 % 1018,7 hPa 0,0 l/m 0,1 km/h N 14,7 C 28,4 C 1,2 km/h
08.06.2014 21:00 23,8 C 57 % 1019,3 hPa 0,0 l/m 0,2 km/h N 14,7 C 23,8 C 2,4 km/h
08.06.2014 22:00 20,5 C 67 % 1019,5 hPa 0,0 l/m 0,6 km/h N 14,1 C 20,5 C 2,8 km/h
08.06.2014 23:00 19,0 C 71 % 1019,5 hPa 0,0 l/m 0,1 km/h N 13,5 C 19,0 C 2,4 km/h
Min-Datum _ 04.06.14 08.06.14 04.06.14 - 02.06.14 - 02.06.14 04.06.14 02.06.14
_ Min-Zeit 05:15 16:45 19:00 - 20:45 - 19:30 05:30 20:45
Minimum _ 9,3 C 34 % 1007,9 hPa - 0,0 km/h - 5,7 C 9,3 C 0,0 km/h
Max-Datum _ 08.06.14 04.06.14 08.06.14 02.06.14 05.06.14 - 08.06.14 08.06.14 05.06.14
_ Max-Zeit 18:15 01:00 08:15 00:00 13:15 - 13:00 18:00 11:15
Maximum _ 31,2 C 84 % 1020,2 hPa 0,0 l/m 9,9 km/h
N
- 19,2 C 31,1 C 29,0 km/h
N
Durchschnitt _ 18,4 C 64 % 1015,6 hPa #0,0 l/m 1,7 km/h N 11,1 C 18,4 C 7,1 km/h